createdAt,value
2022-12-23T00:00:29.500Z,98672.72
2022-12-23T00:01:00.881Z,98669.19
2022-12-23T00:01:32.292Z,98674.16
2022-12-23T00:02:03.822Z,98669.50
2022-12-23T00:02:35.467Z,98674.31
2022-12-23T00:03:07.094Z,98674.63
2022-12-23T00:03:38.728Z,98677.84
2022-12-23T00:04:10.290Z,98671.09
2022-12-23T00:04:41.753Z,98680.09
2022-12-23T00:05:13.119Z,98667.91
2022-12-23T00:05:44.530Z,98669.50
2022-12-23T00:06:16.103Z,98672.38
2022-12-23T00:06:47.580Z,98669.50
2022-12-23T00:07:19.064Z,98674.47
2022-12-23T00:07:50.456Z,98670.94
2022-12-23T00:08:21.933Z,98666.28
2022-12-23T00:08:53.336Z,98667.25
2022-12-23T00:09:24.759Z,98675.75
2022-12-23T00:09:56.181Z,98676.06
2022-12-23T00:10:27.541Z,98673.66
2022-12-23T00:10:58.941Z,98674.94
2022-12-23T00:11:30.342Z,98667.91
2022-12-23T00:12:01.727Z,98672.88
2022-12-23T00:12:33.219Z,98672.88
2022-12-23T00:13:04.683Z,98671.25
2022-12-23T00:13:36.055Z,98672.88
2022-12-23T00:14:07.409Z,98675.59
2022-12-23T00:14:38.832Z,98672.53
2022-12-23T00:15:10.313Z,98682.66
2022-12-23T00:15:41.694Z,98676.72
2022-12-23T00:16:13.264Z,98687.31
2022-12-23T00:16:44.805Z,98682.81
2022-12-23T00:17:23.625Z,98681.53
2022-12-23T00:17:55.078Z,98686.50
2022-12-23T00:18:26.522Z,98683.94
2022-12-23T00:18:57.948Z,98677.84
2022-12-23T00:19:29.315Z,98682.00
2022-12-23T00:20:00.770Z,98687.78
2022-12-23T00:20:32.158Z,98687.78
2022-12-23T00:21:08.642Z,98687.47
2022-12-23T00:21:40.730Z,98686.34
2022-12-23T00:22:12.157Z,98689.88
2022-12-23T00:22:43.516Z,98687.47
2022-12-23T00:23:14.914Z,98688.75
2022-12-23T00:23:46.346Z,98688.25
2022-12-23T00:24:17.907Z,98687.78
2022-12-23T00:24:49.321Z,98689.72
2022-12-23T00:25:20.790Z,98685.38
2022-12-23T00:25:52.205Z,98683.13
2022-12-23T00:26:23.648Z,98685.22
2022-12-23T00:26:55.066Z,98683.44
2022-12-23T00:27:26.459Z,98676.88
2022-12-23T00:27:57.836Z,98678.00
2022-12-23T00:28:29.200Z,98679.13
2022-12-23T00:29:00.668Z,98674.78
2022-12-23T00:29:32.124Z,98680.56
2022-12-23T00:30:06.424Z,98675.91
2022-12-23T00:30:37.903Z,98682.97
2022-12-23T00:31:09.306Z,98679.59
2022-12-23T00:31:40.753Z,98685.38
2022-12-23T00:32:12.248Z,98675.91
2022-12-23T00:32:43.671Z,98685.69
2022-12-23T00:33:15.042Z,98681.84
2022-12-23T00:33:46.460Z,98678.81
2022-12-23T00:34:17.869Z,98678.47
2022-12-23T00:34:49.351Z,98685.53
2022-12-23T00:35:20.699Z,98685.38
2022-12-23T00:35:52.238Z,98686.50
2022-12-23T00:36:24.026Z,98679.59
2022-12-23T00:36:55.557Z,98687.31
2022-12-23T00:37:26.940Z,98681.53
2022-12-23T00:37:58.306Z,98677.19
2022-12-23T00:38:29.710Z,98687.31
2022-12-23T00:39:01.109Z,98684.25
2022-12-23T00:39:32.499Z,98681.84
2022-12-23T00:40:06.760Z,98679.59
2022-12-23T00:40:38.485Z,98685.53
2022-12-23T00:41:09.942Z,98679.94
2022-12-23T00:41:41.303Z,98685.69
2022-12-23T00:42:12.806Z,98680.25
2022-12-23T00:42:44.183Z,98683.44
2022-12-23T00:43:15.575Z,98674.94
2022-12-23T00:43:46.973Z,98685.38
2022-12-23T00:44:18.341Z,98683.78
2022-12-23T00:44:49.724Z,98684.88
2022-12-23T00:45:21.190Z,98677.03
2022-12-23T00:45:52.699Z,98688.75
2022-12-23T00:46:24.298Z,98677.53
2022-12-23T00:46:55.713Z,98679.94
2022-12-23T00:47:27.123Z,98684.72
2022-12-23T00:47:58.515Z,98678.81
2022-12-23T00:48:29.961Z,98674.16
2022-12-23T00:49:01.347Z,98671.75
2022-12-23T00:49:32.751Z,98680.41
2022-12-23T00:50:04.140Z,98680.56
2022-12-23T00:50:35.549Z,98677.69
2022-12-23T00:51:06.962Z,98683.44
2022-12-23T00:51:38.403Z,98686.19
2022-12-23T00:52:09.762Z,98688.09
2022-12-23T00:52:41.173Z,98684.09
2022-12-23T00:53:12.601Z,98680.88
2022-12-23T00:53:43.964Z,98685.06
2022-12-23T00:54:15.511Z,98686.50
2022-12-23T00:54:46.949Z,98683.78
2022-12-23T00:55:18.383Z,98682.16
2022-12-23T00:55:49.819Z,98696.59
2022-12-23T00:56:21.188Z,98692.59
2022-12-23T00:56:52.624Z,98688.59
2022-12-23T00:57:24.030Z,98684.75
2022-12-23T00:57:55.441Z,98694.03
2022-12-23T00:58:26.878Z,98692.44
2022-12-23T00:58:58.294Z,98692.75
2022-12-23T00:59:29.680Z,98686.97
2022-12-23T01:00:03.794Z,98691.00
2022-12-23T01:00:35.173Z,98691.78
2022-12-23T01:01:06.630Z,98692.28
2022-12-23T01:01:38.165Z,98687.16
2022-12-23T01:02:09.778Z,98685.22
2022-12-23T01:02:41.277Z,98683.94
2022-12-23T01:03:12.849Z,98684.75
2022-12-23T01:03:44.363Z,98688.25
2022-12-23T01:04:15.755Z,98685.22
2022-12-23T01:04:47.117Z,98682.34
2022-12-23T01:05:18.503Z,98680.72
2022-12-23T01:05:49.888Z,98684.25
2022-12-23T01:06:21.381Z,98683.44
2022-12-23T01:06:52.901Z,98681.22
2022-12-23T01:07:24.425Z,98679.13
2022-12-23T01:07:55.787Z,98686.03
2022-12-23T01:08:27.207Z,98677.03
2022-12-23T01:08:58.580Z,98682.97
2022-12-23T01:09:29.981Z,98681.53
2022-12-23T01:10:01.407Z,98673.66
2022-12-23T01:10:32.831Z,98674.78
2022-12-23T01:11:04.233Z,98681.84
2022-12-23T01:11:35.613Z,98669.81
2022-12-23T01:12:08.551Z,98679.94
2022-12-23T01:12:40.001Z,98679.59
2022-12-23T01:13:11.486Z,98683.78
2022-12-23T01:13:42.915Z,98684.56
2022-12-23T01:14:14.282Z,98684.41
2022-12-23T01:14:45.694Z,98687.94
2022-12-23T01:15:17.150Z,98686.50
2022-12-23T01:15:48.572Z,98687.78
2022-12-23T01:16:20.118Z,98690.84
2022-12-23T01:16:51.676Z,98682.00
2022-12-23T01:17:23.419Z,98690.50
2022-12-23T01:17:55.011Z,98690.84
2022-12-23T01:18:26.387Z,98685.53
2022-12-23T01:18:57.801Z,98686.19
2022-12-23T01:19:29.229Z,98686.50
2022-12-23T01:20:00.621Z,98691.63
2022-12-23T01:20:32.085Z,98696.13
2022-12-23T01:21:03.416Z,98695.47
2022-12-23T01:21:34.873Z,98693.88
2022-12-23T01:22:06.289Z,98693.56
2022-12-23T01:22:37.694Z,98694.34
2022-12-23T01:23:09.146Z,98698.84
2022-12-23T01:23:40.549Z,98705.75
2022-12-23T01:24:12.067Z,98705.59
2022-12-23T01:24:43.485Z,98705.75
2022-12-23T01:25:14.958Z,98698.22
2022-12-23T01:25:46.415Z,98698.69
2022-12-23T01:26:17.807Z,98702.53
2022-12-23T01:26:49.214Z,98703.50
2022-12-23T01:27:20.644Z,98694.84
2022-12-23T01:27:52.069Z,98695.81
2022-12-23T01:28:23.545Z,98696.94
2022-12-23T01:28:54.898Z,98699.81
2022-12-23T01:29:26.342Z,98691.00
2022-12-23T01:29:57.748Z,98700.28
2022-12-23T01:30:29.155Z,98699.50
2022-12-23T01:31:00.547Z,98697.56
2022-12-23T01:31:32.051Z,98691.47
2022-12-23T01:32:03.477Z,98697.41
2022-12-23T01:32:34.893Z,98696.75
2022-12-23T01:33:06.292Z,98693.56
2022-12-23T01:33:37.777Z,98700.94
2022-12-23T01:34:09.246Z,98701.91
2022-12-23T01:34:40.573Z,98697.72
2022-12-23T01:35:12.107Z,98699.97
2022-12-23T01:35:43.651Z,98702.84
2022-12-23T01:36:15.275Z,98702.53
2022-12-23T01:36:46.646Z,98704.16
2022-12-23T01:37:18.128Z,98703.66
2022-12-23T01:37:49.526Z,98703.97
2022-12-23T01:38:20.915Z,98710.88
2022-12-23T01:38:52.372Z,98703.34
2022-12-23T01:39:23.749Z,98698.84
2022-12-23T01:39:55.123Z,98703.50
2022-12-23T01:40:26.527Z,98704.78
2022-12-23T01:40:57.921Z,98709.75
2022-12-23T01:41:29.318Z,98712.97
2022-12-23T01:42:00.753Z,98700.63
2022-12-23T01:42:32.175Z,98704.16
2022-12-23T01:43:03.560Z,98709.13
2022-12-23T01:43:34.907Z,98702.38
2022-12-23T01:44:06.318Z,98706.72
2022-12-23T01:44:37.730Z,98707.03
2022-12-23T01:45:09.070Z,98705.59
2022-12-23T01:45:40.512Z,98713.44
2022-12-23T01:46:11.960Z,98710.56
2022-12-23T01:46:43.422Z,98711.03
2022-12-23T01:47:14.832Z,98709.28
2022-12-23T01:47:46.189Z,98708.63
2022-12-23T01:48:17.618Z,98720.19
2022-12-23T01:48:49.034Z,98713.13
2022-12-23T01:49:20.489Z,98706.38
2022-12-23T01:49:51.940Z,98717.94
2022-12-23T01:50:23.252Z,98713.91
2022-12-23T01:50:54.843Z,98713.28
2022-12-23T01:51:26.245Z,98712.63
2022-12-23T01:51:57.614Z,98714.09
2022-12-23T01:52:28.993Z,98708.16
2022-12-23T01:53:04.785Z,98712.16
2022-12-23T01:53:38.897Z,98714.72
2022-12-23T01:54:10.419Z,98713.13
2022-12-23T01:54:41.928Z,98709.75
2022-12-23T01:55:13.343Z,98710.56
2022-12-23T01:55:44.758Z,98717.44
2022-12-23T01:56:16.191Z,98706.22
2022-12-23T01:56:47.603Z,98717.63
2022-12-23T01:57:18.979Z,98718.09
2022-12-23T01:57:50.435Z,98712.47
2022-12-23T01:58:21.850Z,98720.34
2022-12-23T01:58:53.307Z,98712.78
2022-12-23T01:59:24.703Z,98715.84
2022-12-23T01:59:56.187Z,98715.38
2022-12-23T02:00:27.591Z,98713.28
2022-12-23T02:00:59.035Z,98714.72
2022-12-23T02:01:30.633Z,98716.97
2022-12-23T02:02:02.228Z,98713.44
2022-12-23T02:02:33.961Z,98717.78
2022-12-23T02:03:05.512Z,98709.44
2022-12-23T02:03:37.030Z,98712.47
2022-12-23T02:04:08.476Z,98716.31
2022-12-23T02:04:39.878Z,98714.41
2022-12-23T02:05:11.288Z,98719.38
2022-12-23T02:05:42.757Z,98723.22
2022-12-23T02:06:14.194Z,98716.16
2022-12-23T02:06:45.650Z,98724.81
2022-12-23T02:07:19.855Z,98724.03
2022-12-23T02:07:51.241Z,98719.06
2022-12-23T02:08:22.642Z,98721.78
2022-12-23T02:08:54.078Z,98718.56
2022-12-23T02:09:25.490Z,98720.97
2022-12-23T02:09:56.892Z,98726.28
2022-12-23T02:10:28.374Z,98722.09
2022-12-23T02:10:59.799Z,98726.59
2022-12-23T02:11:31.194Z,98726.09
2022-12-23T02:12:04.995Z,98729.97
2022-12-23T02:12:36.474Z,98726.75
2022-12-23T02:13:07.800Z,98737.66
2022-12-23T02:13:39.195Z,98725.16
2022-12-23T02:14:10.581Z,98724.66
2022-12-23T02:14:41.978Z,98731.72
2022-12-23T02:15:13.434Z,98725.63
2022-12-23T02:15:44.923Z,98728.03
2022-12-23T02:16:16.436Z,98730.44
2022-12-23T02:16:47.897Z,98728.53
2022-12-23T02:17:19.501Z,98728.19
2022-12-23T02:17:50.858Z,98734.44
2022-12-23T02:18:22.230Z,98734.44
2022-12-23T02:18:53.794Z,98735.91
2022-12-23T02:19:25.180Z,98725.78
2022-12-23T02:19:56.593Z,98737.50
2022-12-23T02:20:28.017Z,98729.63
2022-12-23T02:20:59.540Z,98736.69
2022-12-23T02:21:30.927Z,98734.28
2022-12-23T02:22:02.573Z,98734.28
2022-12-23T02:22:34.125Z,98732.38
2022-12-23T02:23:05.509Z,98729.63
2022-12-23T02:23:36.933Z,98733.81
2022-12-23T02:24:08.498Z,98733.31
2022-12-23T02:24:39.949Z,98734.94
2022-12-23T02:25:11.388Z,98726.44
2022-12-23T02:25:42.797Z,98729.47
2022-12-23T02:26:14.235Z,98730.59
2022-12-23T02:26:45.682Z,98734.59
2022-12-23T02:27:20.000Z,98734.28
2022-12-23T02:27:51.356Z,98742.94
2022-12-23T02:28:22.845Z,98741.03
2022-12-23T02:28:54.311Z,98738.31
2022-12-23T02:29:25.822Z,98744.88
2022-12-23T02:29:57.246Z,98738.13
2022-12-23T02:30:28.918Z,98741.97
2022-12-23T02:31:00.502Z,98740.38
2022-12-23T02:31:32.171Z,98743.75
2022-12-23T02:32:03.674Z,98743.59
2022-12-23T02:32:35.204Z,98749.84
2022-12-23T02:33:06.596Z,98744.72
2022-12-23T02:33:38.000Z,98738.13
2022-12-23T02:34:09.429Z,98759.16
2022-12-23T02:34:40.790Z,98737.66
2022-12-23T02:35:12.173Z,98745.19
2022-12-23T02:35:43.608Z,98744.06
2022-12-23T02:36:14.997Z,98743.75
2022-12-23T02:36:46.527Z,98747.28
2022-12-23T02:37:17.896Z,98742.63
2022-12-23T02:37:49.271Z,98746.81
2022-12-23T02:38:20.668Z,98750.00
2022-12-23T02:38:52.057Z,98742.78
2022-12-23T02:39:23.471Z,98745.03
2022-12-23T02:39:54.940Z,98741.66
2022-12-23T02:40:26.496Z,98745.69
2022-12-23T02:40:57.922Z,98744.72
2022-12-23T02:41:29.296Z,98746.31
2022-12-23T02:42:00.707Z,98751.28
2022-12-23T02:42:32.110Z,98749.53
2022-12-23T02:43:03.518Z,98749.22
2022-12-23T02:43:34.944Z,98746.00
2022-12-23T02:44:06.374Z,98741.50
2022-12-23T02:44:37.729Z,98745.19
2022-12-23T02:45:09.125Z,98746.81
2022-12-23T02:45:40.559Z,98752.88
2022-12-23T02:46:11.961Z,98756.72
2022-12-23T02:46:43.424Z,98757.06
2022-12-23T02:47:14.924Z,98755.63
2022-12-23T02:47:46.347Z,98750.66
2022-12-23T02:48:17.768Z,98750.16
2022-12-23T02:48:49.158Z,98750.66
2022-12-23T02:49:20.538Z,98745.84
2022-12-23T02:49:51.963Z,98759.94
2022-12-23T02:50:23.344Z,98758.50
2022-12-23T02:50:54.739Z,98749.53
2022-12-23T02:51:26.168Z,98753.06
2022-12-23T02:51:57.639Z,98753.38
2022-12-23T02:52:29.051Z,98756.25
2022-12-23T02:53:00.439Z,98753.84
2022-12-23T02:53:31.812Z,98753.84
2022-12-23T02:54:03.299Z,98760.75
2022-12-23T02:54:34.763Z,98756.09
2022-12-23T02:55:06.134Z,98754.97
2022-12-23T02:55:37.523Z,98762.53
2022-12-23T02:56:08.916Z,98760.59
2022-12-23T02:56:40.311Z,98763.16
2022-12-23T02:57:11.723Z,98762.66
2022-12-23T02:57:43.150Z,98763.97
2022-12-23T02:58:14.542Z,98763.16
2022-12-23T02:58:45.956Z,98772.47
2022-12-23T02:59:17.376Z,98757.53
2022-12-23T02:59:48.768Z,98767.31
2022-12-23T03:00:20.167Z,98770.22
2022-12-23T03:00:51.547Z,98768.94
2022-12-23T03:01:23.057Z,98773.91
2022-12-23T03:01:54.588Z,98774.38
2022-12-23T03:02:26.219Z,98771.66
2022-12-23T03:02:58.080Z,98768.13
2022-12-23T03:03:29.686Z,98770.84
2022-12-23T03:04:01.270Z,98771.34
2022-12-23T03:04:32.846Z,98766.69
2022-12-23T03:05:04.281Z,98770.03
2022-12-23T03:05:35.625Z,98774.06
2022-12-23T03:06:07.868Z,98775.19
2022-12-23T03:06:39.245Z,98769.25
2022-12-23T03:07:16.691Z,98770.03
2022-12-23T03:07:49.760Z,98777.09
2022-12-23T03:08:21.252Z,98774.69
2022-12-23T03:08:52.627Z,98771.50
2022-12-23T03:09:24.147Z,98780.78
2022-12-23T03:09:55.632Z,98780.94
2022-12-23T03:10:27.070Z,98778.06
2022-12-23T03:10:58.624Z,98773.56
2022-12-23T03:11:29.950Z,98777.75
2022-12-23T03:12:01.322Z,98779.66
2022-12-23T03:12:32.803Z,98779.66
2022-12-23T03:13:04.185Z,98776.31
2022-12-23T03:13:35.664Z,98773.75
2022-12-23T03:14:07.036Z,98776.94
2022-12-23T03:14:38.380Z,98772.94
2022-12-23T03:15:09.797Z,98777.09
2022-12-23T03:15:41.209Z,98780.63
2022-12-23T03:16:12.774Z,98776.31
2022-12-23T03:16:44.181Z,98777.09
2022-12-23T03:17:15.540Z,98777.91
2022-12-23T03:17:46.961Z,98779.03
2022-12-23T03:18:18.502Z,98783.38
2022-12-23T03:18:49.987Z,98779.84
2022-12-23T03:19:21.352Z,98778.53
2022-12-23T03:19:52.745Z,98783.50
2022-12-23T03:20:24.209Z,98781.28
2022-12-23T03:20:55.676Z,98782.88
2022-12-23T03:21:27.056Z,98784.16
2022-12-23T03:21:58.464Z,98782.25
2022-12-23T03:22:29.861Z,98782.72
2022-12-23T03:23:01.273Z,98783.03
2022-12-23T03:23:32.828Z,98789.63
2022-12-23T03:24:04.480Z,98793.47
2022-12-23T03:24:35.921Z,98793.16
2022-12-23T03:25:07.287Z,98787.22
2022-12-23T03:25:38.710Z,98792.03
2022-12-23T03:26:10.108Z,98780.63
2022-12-23T03:26:41.540Z,98792.19
2022-12-23T03:27:12.900Z,98788.81
2022-12-23T03:27:44.289Z,98788.34
2022-12-23T03:28:15.696Z,98792.34
2022-12-23T03:28:47.080Z,98798.44
2022-12-23T03:29:18.963Z,98794.91
2022-12-23T03:29:50.363Z,98798.91
2022-12-23T03:30:21.764Z,98794.09
2022-12-23T03:30:53.218Z,98792.03
2022-12-23T03:31:24.742Z,98794.28
2022-12-23T03:31:56.214Z,98794.28
2022-12-23T03:32:27.644Z,98795.69
2022-12-23T03:32:59.186Z,98797.63
2022-12-23T03:33:30.553Z,98790.56
2022-12-23T03:34:01.969Z,98799.06
2022-12-23T03:34:33.433Z,98802.75
2022-12-23T03:35:04.829Z,98788.50
2022-12-23T03:35:36.256Z,98797.00
2022-12-23T03:36:07.723Z,98796.34
2022-12-23T03:36:39.144Z,98795.06
2022-12-23T03:37:10.572Z,98798.59
2022-12-23T03:37:42.009Z,98798.28
2022-12-23T03:38:13.399Z,98801.00
2022-12-23T03:38:44.790Z,98805.16
2022-12-23T03:39:16.246Z,98808.22
2022-12-23T03:39:47.705Z,98807.41
2022-12-23T03:40:19.108Z,98802.28
2022-12-23T03:40:50.553Z,98807.59
2022-12-23T03:41:21.964Z,98805.16
2022-12-23T03:41:53.394Z,98809.81
2022-12-23T03:42:24.907Z,98807.25
2022-12-23T03:42:56.355Z,98804.22
2022-12-23T03:43:27.744Z,98809.66
2022-12-23T03:43:59.133Z,98807.59
2022-12-23T03:44:30.630Z,98810.63
2022-12-23T03:45:36.870Z,98812.41
2022-12-23T03:45:56.617Z,98813.84
2022-12-23T03:46:28.130Z,98813.03
2022-12-23T03:46:59.515Z,98809.03
2022-12-23T03:47:30.891Z,98811.25
2022-12-23T03:48:02.300Z,98814.78
2022-12-23T03:48:33.743Z,98809.34
2022-12-23T03:49:05.183Z,98818.31
2022-12-23T03:49:36.553Z,98815.75
2022-12-23T03:50:08.065Z,98814.16
2022-12-23T03:50:39.420Z,98821.84
2022-12-23T03:51:10.801Z,98823.78
2022-12-23T03:51:42.168Z,98822.16
2022-12-23T03:52:19.002Z,98818.00
2022-12-23T03:52:52.780Z,98821.53
2022-12-23T03:53:24.170Z,98817.69
2022-12-23T03:53:55.598Z,98819.47
2022-12-23T03:54:27.147Z,98813.84
2022-12-23T03:54:58.577Z,98822.00
2022-12-23T03:55:30.050Z,98823.78
2022-12-23T03:56:01.432Z,98822.00
2022-12-23T03:56:32.831Z,98824.25
2022-12-23T03:57:04.254Z,98823.94
2022-12-23T03:57:35.639Z,98822.34
2022-12-23T03:58:07.034Z,98823.63
2022-12-23T03:58:38.460Z,98823.13
2022-12-23T03:59:09.797Z,98819.47
2022-12-23T03:59:41.154Z,98813.03
2022-12-23T04:00:12.579Z,98817.69
2022-12-23T04:00:44.025Z,98821.53
2022-12-23T04:01:17.834Z,98811.09
2022-12-23T04:01:49.835Z,98820.91
2022-12-23T04:02:21.427Z,98821.06
2022-12-23T04:02:53.035Z,98819.78
2022-12-23T04:03:24.726Z,98817.69
2022-12-23T04:03:56.241Z,98816.06
2022-12-23T04:04:27.732Z,98820.41
2022-12-23T04:04:59.081Z,98816.88
2022-12-23T04:05:30.504Z,98814.16
2022-12-23T04:06:02.087Z,98814.00
2022-12-23T04:06:33.593Z,98817.22
2022-12-23T04:07:05.005Z,98821.88
2022-12-23T04:07:36.394Z,98822.66
2022-12-23T04:08:07.942Z,98823.00
2022-12-23T04:08:39.287Z,98821.88
2022-12-23T04:09:10.694Z,98823.31
2022-12-23T04:09:42.160Z,98818.97
2022-12-23T04:10:13.536Z,98828.13
2022-12-23T04:10:44.896Z,98819.63
2022-12-23T04:11:16.416Z,98825.22
2022-12-23T04:11:47.800Z,98820.56
2022-12-23T04:12:19.171Z,98827.97
2022-12-23T04:12:50.576Z,98829.38
2022-12-23T04:13:21.964Z,98820.56
2022-12-23T04:13:53.358Z,98827.97
2022-12-23T04:14:24.736Z,98820.91
2022-12-23T04:14:56.230Z,98829.56
2022-12-23T04:15:27.670Z,98819.28
2022-12-23T04:15:59.191Z,98817.84
2022-12-23T04:16:30.738Z,98814.81
2022-12-23T04:17:02.369Z,98812.41
2022-12-23T04:17:33.743Z,98814.16
2022-12-23T04:18:05.139Z,98814.47
2022-12-23T04:18:36.593Z,98813.34
2022-12-23T04:19:08.009Z,98804.38
2022-12-23T04:19:39.409Z,98814.16
2022-12-23T04:20:10.917Z,98818.50
2022-12-23T04:20:42.312Z,98819.94
2022-12-23T04:21:13.855Z,98816.56
2022-12-23T04:21:45.198Z,98812.22
2022-12-23T04:22:16.666Z,98824.44
2022-12-23T04:22:48.035Z,98818.97
2022-12-23T04:23:19.446Z,98833.72
2022-12-23T04:23:50.885Z,98818.16
2022-12-23T04:24:22.313Z,98826.34
2022-12-23T04:24:53.753Z,98825.06
2022-12-23T04:25:25.247Z,98821.53
2022-12-23T04:25:56.633Z,98821.53
2022-12-23T04:26:28.075Z,98822.00
2022-12-23T04:26:59.468Z,98819.28
2022-12-23T04:27:30.865Z,98828.59
2022-12-23T04:28:02.276Z,98822.66
2022-12-23T04:28:33.691Z,98821.03
2022-12-23T04:29:05.087Z,98818.00
2022-12-23T04:29:36.432Z,98817.69
2022-12-23T04:30:07.837Z,98821.53
2022-12-23T04:30:39.328Z,98819.28
2022-12-23T04:31:10.770Z,98819.47
2022-12-23T04:31:42.331Z,98813.84
2022-12-23T04:32:13.773Z,98819.28
2022-12-23T04:32:45.151Z,98819.59
2022-12-23T04:33:16.610Z,98810.63
2022-12-23T04:33:48.012Z,98812.53
2022-12-23T04:34:19.389Z,98819.94
2022-12-23T04:34:50.797Z,98815.59
2022-12-23T04:35:22.176Z,98812.88
2022-12-23T04:35:53.641Z,98814.78
2022-12-23T04:36:25.037Z,98823.94
2022-12-23T04:36:56.445Z,98818.97
2022-12-23T04:37:27.860Z,98818.66
2022-12-23T04:37:59.259Z,98820.25
2022-12-23T04:38:30.724Z,98824.09
2022-12-23T04:39:02.121Z,98818.50
2022-12-23T04:39:33.526Z,98823.94
2022-12-23T04:40:05.016Z,98824.25
2022-12-23T04:40:36.513Z,98823.94
2022-12-23T04:41:08.025Z,98822.00
2022-12-23T04:41:39.389Z,98821.22
2022-12-23T04:42:10.788Z,98823.63
2022-12-23T04:42:42.186Z,98825.53
2022-12-23T04:43:13.572Z,98826.34
2022-12-23T04:43:49.297Z,98824.25
2022-12-23T04:44:24.087Z,98817.69
2022-12-23T04:44:55.530Z,98818.16
2022-12-23T04:45:26.953Z,98816.25
2022-12-23T04:45:58.355Z,98824.44
2022-12-23T04:46:29.899Z,98818.16
2022-12-23T04:47:01.423Z,98819.28
2022-12-23T04:47:32.858Z,98817.84
2022-12-23T04:48:04.371Z,98818.66
2022-12-23T04:48:35.747Z,98821.38
2022-12-23T04:49:07.120Z,98822.50
2022-12-23T04:49:38.525Z,98815.28
2022-12-23T04:50:09.927Z,98821.56
2022-12-23T04:50:41.307Z,98823.16
2022-12-23T04:51:12.720Z,98827.50
2022-12-23T04:51:44.147Z,98815.78
2022-12-23T04:52:15.544Z,98824.09
2022-12-23T04:52:46.979Z,98823.31
2022-12-23T04:53:18.431Z,98826.53
2022-12-23T04:53:49.852Z,98822.03
2022-12-23T04:54:21.212Z,98826.19
2022-12-23T04:54:52.644Z,98818.16
2022-12-23T04:55:24.069Z,98823.94
2022-12-23T04:55:55.504Z,98820.09
2022-12-23T04:56:26.885Z,98816.56
2022-12-23T04:56:58.352Z,98826.84
2022-12-23T04:57:29.756Z,98826.19
2022-12-23T04:58:01.149Z,98823.31
2022-12-23T04:58:32.538Z,98820.09
2022-12-23T04:59:03.990Z,98824.59
2022-12-23T04:59:35.354Z,98827.63
2022-12-23T05:00:06.743Z,98830.69
2022-12-23T05:00:40.007Z,98828.75
2022-12-23T05:01:11.704Z,98833.72
2022-12-23T05:01:43.266Z,98833.72
2022-12-23T05:02:15.005Z,98839.50
2022-12-23T05:02:46.720Z,98833.25
2022-12-23T05:03:18.420Z,98832.91
2022-12-23T05:03:49.917Z,98838.69
2022-12-23T05:04:21.380Z,98836.44
2022-12-23T05:04:52.809Z,98832.28
2022-12-23T05:05:24.305Z,98833.41
2022-12-23T05:05:55.656Z,98830.69
2022-12-23T05:06:27.049Z,98836.13
2022-12-23T05:06:58.440Z,98836.44
2022-12-23T05:07:29.857Z,98841.91
2022-12-23T05:08:01.270Z,98832.44
2022-12-23T05:08:32.633Z,98837.09
2022-12-23T05:09:04.005Z,98846.72
2022-12-23T05:09:35.388Z,98839.19
2022-12-23T05:10:06.845Z,98841.09
2022-12-23T05:10:38.237Z,98838.69
2022-12-23T05:11:09.654Z,98845.25
2022-12-23T05:11:42.469Z,98844.94
2022-12-23T05:12:14.037Z,98844.47
2022-12-23T05:12:45.487Z,98839.50
2022-12-23T05:13:16.909Z,98848.34
2022-12-23T05:13:48.303Z,98839.34
2022-12-23T05:14:19.712Z,98836.13
2022-12-23T05:14:51.140Z,98835.66
2022-12-23T05:15:22.565Z,98845.44
2022-12-23T05:15:54.063Z,98849.28
2022-12-23T05:16:25.561Z,98849.78
2022-12-23T05:17:00.814Z,98847.34
2022-12-23T05:17:35.113Z,98841.28
2022-12-23T05:18:06.657Z,98836.44
2022-12-23T05:18:38.060Z,98841.41
2022-12-23T05:19:09.415Z,98840.63
2022-12-23T05:19:40.775Z,98846.56
2022-12-23T05:20:44.684Z,98847.19
2022-12-23T05:21:16.129Z,98848.47
2022-12-23T05:21:47.535Z,98852.81
2022-12-23T05:22:18.999Z,98850.56
2022-12-23T05:22:50.429Z,98844.31
2022-12-23T05:23:21.913Z,98844.63
2022-12-23T05:23:53.345Z,98850.09
2022-12-23T05:24:24.773Z,98851.38
2022-12-23T05:24:56.251Z,98852.81
2022-12-23T05:25:27.685Z,98848.00
2022-12-23T05:25:59.143Z,98846.06
2022-12-23T05:26:30.542Z,98847.53
2022-12-23T05:27:01.937Z,98843.19
2022-12-23T05:27:33.305Z,98850.25
2022-12-23T05:28:04.746Z,98854.41
2022-12-23T05:28:36.212Z,98849.28
2022-12-23T05:29:07.789Z,98854.41
2022-12-23T05:29:39.212Z,98851.19
2022-12-23T05:30:10.659Z,98856.97
2022-12-23T05:30:42.109Z,98853.28
2022-12-23T05:31:13.580Z,98855.53
2022-12-23T05:31:45.058Z,98856.66
2022-12-23T05:32:16.530Z,98852.97
2022-12-23T05:32:47.960Z,98859.88
2022-12-23T05:33:19.397Z,98849.28
2022-12-23T05:33:50.917Z,98854.72
2022-12-23T05:34:22.377Z,98853.94
2022-12-23T05:34:53.812Z,98852.31
2022-12-23T05:35:25.243Z,98864.19
2022-12-23T05:35:56.662Z,98852.00
2022-12-23T05:36:28.115Z,98853.94
2022-12-23T05:36:59.551Z,98854.25
2022-12-23T05:37:30.960Z,98852.00
2022-12-23T05:38:02.440Z,98853.63
2022-12-23T05:38:33.828Z,98852.50
2022-12-23T05:39:05.344Z,98848.34
2022-12-23T05:39:36.769Z,98850.56
2022-12-23T05:40:08.152Z,98855.22
2022-12-23T05:40:39.802Z,98847.22
2022-12-23T05:41:11.403Z,98848.66
2022-12-23T05:41:42.815Z,98847.03
2022-12-23T05:42:14.503Z,98852.50
2022-12-23T05:42:45.940Z,98858.25
2022-12-23T05:43:17.310Z,98851.06
2022-12-23T05:43:48.707Z,98852.97
2022-12-23T05:44:20.190Z,98849.13
2022-12-23T05:44:51.609Z,98849.78
2022-12-23T05:45:23.071Z,98844.63
2022-12-23T05:45:54.622Z,98848.97
2022-12-23T05:46:27.093Z,98846.56
2022-12-23T05:46:58.767Z,98848.97
2022-12-23T05:47:30.190Z,98853.63
2022-12-23T05:48:01.616Z,98852.81
2022-12-23T05:48:33.064Z,98838.38
2022-12-23T05:49:04.600Z,98844.31
2022-12-23T05:49:36.179Z,98849.94
2022-12-23T05:50:07.584Z,98839.34
2022-12-23T05:50:39.079Z,98841.28
2022-12-23T05:51:10.613Z,98849.13
2022-12-23T05:51:42.054Z,98844.47
2022-12-23T05:52:13.482Z,98849.13
2022-12-23T05:52:44.863Z,98850.56
2022-12-23T05:53:16.274Z,98844.31
2022-12-23T05:53:47.699Z,98848.16
2022-12-23T05:54:19.249Z,98853.63
2022-12-23T05:54:50.748Z,98844.63
2022-12-23T05:55:22.199Z,98855.22
2022-12-23T05:55:53.638Z,98852.00
2022-12-23T05:56:25.065Z,98852.00
2022-12-23T05:56:56.475Z,98853.13
2022-12-23T05:57:27.908Z,98855.72
2022-12-23T05:57:59.379Z,98855.22
2022-12-23T05:58:30.785Z,98854.41
2022-12-23T05:59:02.217Z,98857.47
2022-12-23T05:59:33.638Z,98849.44
2022-12-23T06:00:05.108Z,98851.69
2022-12-23T06:00:36.690Z,98850.88
2022-12-23T06:01:08.120Z,98845.44
2022-12-23T06:01:39.640Z,98850.75
2022-12-23T06:02:11.313Z,98854.59
2022-12-23T06:02:45.116Z,98858.59
2022-12-23T06:03:18.892Z,98852.97
2022-12-23T06:03:50.675Z,98854.91
2022-12-23T06:04:22.186Z,98854.28
2022-12-23T06:04:53.750Z,98851.38
2022-12-23T06:05:25.287Z,98854.41
2022-12-23T06:05:56.734Z,98859.38
2022-12-23T06:06:28.279Z,98856.03
2022-12-23T06:06:59.780Z,98857.16
2022-12-23T06:07:31.263Z,98859.06
2022-12-23T06:08:02.762Z,98853.94
2022-12-23T06:08:34.235Z,98858.59
2022-12-23T06:09:05.631Z,98860.03
2022-12-23T06:09:37.065Z,98861.47
2022-12-23T06:10:08.473Z,98868.53
2022-12-23T06:10:39.981Z,98859.56
2022-12-23T06:11:11.414Z,98865.19
2022-12-23T06:11:42.823Z,98871.44